Página principal
METAR-TAF:

METAR-TAF

Aeroportos :

Lihue, Havaí, Estados Unidos

latitude: 21-59-02N, longitude: 159-20-28W, altura: 45 m

Observação actual do tempo

O boletim foi feito há 23 minutos, às 05:02 UTC
Vento 13 kt de este com rajadas de 20 kt
Temperatura 24°C
Humidade 94%
Pressão 1018 hPa
Visibilidade: 4.0 km
Poucas nuvensa uma altura de 800 ft
Nuvens fragmentadasa uma altura de 3000 ft
Encobertoa uma altura de 3600 ft
chuva, neblina

METAR: PHLI 140502Z 08013G20KT 2 1/2SM RA BR FEW008 BKN030 OVC036 24/23 A3007 RMK AO2 RAB00 P0000 T02440233

Hora: 19:25 (05:25 UTC)

Previsão

O boletim foi feito há 5 horas e 45 minutos, às 23:40 UTC
Previsão válida de 14 às 00 UTC a 14 às 24 UTC
Vento 16 kt de nordeste
Visibilidade: 10 km
Nuvens dispersasa uma altura de 2300 ft
Nuvens fragmentadasa uma altura de 2700 ft
Nuvens fragmentadasa uma altura de 4000 ft
aguaceiros nas vizinhanças

TAF: PHLI 132340Z 1400/1424 05016KT P6SM VCSH SCT023 BKN027 BKN040

Observações e previsões do tempo de mais de 4000 aeroportos (mensagens METAR e TAF).

As estações disponíveis são os pontos amarelos e vermelhos sobre o mapa.

Mova o rato sobre o mapa para ver o nome da estação.

Depois clique no ponto para visualizar as observações e previsões meteorológicas.

Para alterar o mapa : clique nos botões verdes com uma cruz preta para aumentar o zoom; no botão verde com uma pitada de zoom; ou nas setas verdes para mapas adjacentes.


METAR-TAF: